MHRO

Juan Manuel Gálvez International Airport

Airport
ICAO code
MHRO
IATA Code
RTB
Summary
ICAO Region
CARSAM
ICAO Territory
Location

Roatan, Bay Islands Department

Serving
Roatan
Elevation
39 ft
Coordinates
16° 19' 5" N , 86° 31' 37" W
KCC
Airport WX
Tropical Revolving Storm
Metar
Observation
MHRO 270300Z 04009KT CAVOK 25/23 Q1017 A3003 NOSIG
Station
Roatan
Date/Time
2023-01-27 03:00:00
Wind direction
40°
Wind speed
09 kts
Lowest cloud amount
clouds and visibility OK
Temperature
25°C
Dew point
23°C
Humidity
88%
QNH
1017 hPa
Weather condition
n/a

International airport serving the island of Roatan, Honduras.

Climatology

Tropical Savanna climate (Köppen climate classification Aw)

Runways

Designator Length Width Surface Rops
7/25 2240 45 ASP Yes/Yes

Airport map

Aerial View

SKYbrary Partners:

Safety knowledge contributed by: